Time;durP1;ratioP1;P1;durP2;ratioP2;P2;SDS_P1;SDS_P2;PMS_P1;PMS_P2;Temp;Humidity;BMP_temperature;BMP_pressure;BME280_temperature;BME280_humidity;BME280_pressure;Samples;Min_cycle;Max_cycle;Signal;HPM_P1;HPM_P2
2023/08/02 00:01:01;;;;;;;4.22;1.80;;;;;;;;;;5133136;27;20019;-71
2023/08/02 00:03:27;;;;;;;2.88;1.80;;;;;;;;;;5131508;27;20031;-70
2023/08/02 00:05:54;;;;;;;5.25;1.70;;;;;;;;;;5132788;27;20027;-71
2023/08/02 00:08:20;;;;;;;2.42;1.63;;;;;;;;;;5132153;27;20030;-70
2023/08/02 00:10:46;;;;;;;6.10;2.40;;;;;;;;;;5132900;28;20019;-71
2023/08/02 00:13:12;;;;;;;4.00;1.90;;;;;;;;;;5132922;28;20027;-71
2023/08/02 00:15:39;;;;;;;2.35;2.00;;;;;;;;;;5132006;28;20091;-71
2023/08/02 00:18:05;;;;;;;5.97;2.22;;;;;;;;;;5131250;28;20051;-70
2023/08/02 00:20:31;;;;;;;2.13;1.67;;;;;;;;;;5111592;28;20070;-70
2023/08/02 00:22:56;;;;;;;3.90;2.00;;;;;;;;;;5112150;28;20498;-70
2023/08/02 00:25:23;;;;;;;3.42;1.80;;;;;;;;;;5111583;28;20019;-69
2023/08/02 00:27:49;;;;;;;6.82;1.80;;;;;;;;;;5126453;28;20043;-70
2023/08/02 00:30:15;;;;;;;3.25;1.70;;;;;;;;;;5132715;28;20031;-71
2023/08/02 00:32:44;;;;;;;3.65;1.58;;;;;;;;;;5132057;28;20027;-71
2023/08/02 00:35:11;;;;;;;2.83;1.83;;;;;;;;;;5133129;28;20087;-71
2023/08/02 00:37:37;;;;;;;4.90;1.80;;;;;;;;;;5131926;28;20471;-71
2023/08/02 00:40:04;;;;;;;2.67;1.60;;;;;;;;;;5132778;28;20027;-71
2023/08/02 00:42:30;;;;;;;3.03;1.80;;;;;;;;;;5132034;28;20032;-70
2023/08/02 00:44:56;;;;;;;3.83;1.90;;;;;;;;;;5132743;28;20023;-70
2023/08/02 00:47:22;;;;;;;2.10;1.50;;;;;;;;;;5131939;28;20039;-69
2023/08/02 00:49:48;;;;;;;3.83;1.70;;;;;;;;;;5133482;28;20026;-70
2023/08/02 00:52:14;;;;;;;4.30;2.00;;;;;;;;;;5132878;28;20384;-70
2023/08/02 00:54:41;;;;;;;1.90;1.63;;;;;;;;;;5132226;28;20022;-70
2023/08/02 00:57:08;;;;;;;4.13;1.77;;;;;;;;;;5132754;28;20029;-71
2023/08/02 00:59:36;;;;;;;5.13;1.88;;;;;;;;;;5131486;28;20455;-70
2023/08/02 01:02:02;;;;;;;2.22;1.48;;;;;;;;;;5114276;28;20379;-71
2023/08/02 01:04:28;;;;;;;4.22;2.15;;;;;;;;;;5132001;28;20046;-70
2023/08/02 01:06:58;;;;;;;2.85;1.73;;;;;;;;;;5132406;28;20468;-72
2023/08/02 01:09:29;;;;;;;3.72;1.70;;;;;;;;;;5131771;28;20421;-71
2023/08/02 01:12:03;;;;;;;3.15;1.70;;;;;;;;;;5114129;28;20384;-71
2023/08/02 01:14:30;;;;;;;3.17;1.85;;;;;;;;;;5132265;27;20027;-71
2023/08/02 01:16:56;;;;;;;3.88;1.65;;;;;;;;;;5136257;27;20034;-71
2023/08/02 01:19:23;;;;;;;4.57;2.10;;;;;;;;;;5135401;27;20539;-69
2023/08/02 01:21:49;;;;;;;3.78;1.88;;;;;;;;;;5136252;27;20170;-71
2023/08/02 01:24:16;;;;;;;4.85;2.05;;;;;;;;;;5135377;27;20483;-71
2023/08/02 01:26:44;;;;;;;2.80;1.95;;;;;;;;;;5130653;27;20015;-71
2023/08/02 01:29:13;;;;;;;6.30;2.40;;;;;;;;;;5115767;28;20027;-71
2023/08/02 01:31:39;;;;;;;6.18;1.77;;;;;;;;;;5096586;28;20425;-71
2023/08/02 01:34:05;;;;;;;5.60;2.30;;;;;;;;;;5115722;28;20106;-71
2023/08/02 01:36:32;;;;;;;5.65;2.00;;;;;;;;;;5114683;28;20035;-70
2023/08/02 01:38:58;;;;;;;4.38;2.13;;;;;;;;;;5115498;28;20503;-71
2023/08/02 01:41:24;;;;;;;2.63;1.67;;;;;;;;;;5114885;28;20019;-71
2023/08/02 01:43:49;;;;;;;7.20;1.90;;;;;;;;;;5123014;28;20497;-70
2023/08/02 01:46:15;;;;;;;4.57;2.10;;;;;;;;;;5129544;28;20028;-70
2023/08/02 01:48:41;;;;;;;6.78;2.05;;;;;;;;;;5129714;28;20035;-70
2023/08/02 01:51:07;;;;;;;6.68;2.83;;;;;;;;;;5127344;28;20028;-72
2023/08/02 01:53:33;;;;;;;5.40;1.90;;;;;;;;;;5118793;28;20016;-71
2023/08/02 01:56:00;;;;;;;3.22;1.77;;;;;;;;;;5129563;28;20039;-70
2023/08/02 01:58:26;;;;;;;4.32;1.90;;;;;;;;;;5120054;28;20101;-70
2023/08/02 02:00:52;;;;;;;6.95;1.95;;;;;;;;;;5115462;28;20072;-71
2023/08/02 02:03:18;;;;;;;3.60;2.00;;;;;;;;;;5096881;28;20432;-71
2023/08/02 02:05:53;;;;;;;2.17;1.90;;;;;;;;;;5114348;28;20050;-70
2023/08/02 02:08:19;;;;;;;3.05;1.58;;;;;;;;;;5115117;28;20020;-71
2023/08/02 02:10:49;;;;;;;4.95;1.80;;;;;;;;;;5114189;28;20641;-70
2023/08/02 02:13:15;;;;;;;1.75;1.50;;;;;;;;;;5114859;28;20024;-71
2023/08/02 02:15:41;;;;;;;4.70;1.58;;;;;;;;;;5113998;28;20020;-71
2023/08/02 02:18:07;;;;;;;4.45;2.10;;;;;;;;;;5114639;28;20358;-71
2023/08/02 02:20:33;;;;;;;5.60;1.75;;;;;;;;;;5113559;28;20080;-70
2023/08/02 02:22:59;;;;;;;5.90;2.10;;;;;;;;;;5114062;28;20122;-71
2023/08/02 02:25:25;;;;;;;4.35;1.65;;;;;;;;;;5114263;28;20372;-71
2023/08/02 02:27:51;;;;;;;4.40;1.35;;;;;;;;;;5127792;27;20076;-70
2023/08/02 02:30:17;;;;;;;2.17;1.60;;;;;;;;;;5135160;27;20551;-71
2023/08/02 02:32:43;;;;;;;5.40;1.77;;;;;;;;;;5134217;27;20536;-71
2023/08/02 02:35:12;;;;;;;2.42;1.70;;;;;;;;;;5134607;27;20023;-70
2023/08/02 02:37:38;;;;;;;2.92;1.70;;;;;;;;;;5134036;27;20020;-71
2023/08/02 02:40:05;;;;;;;3.53;1.80;;;;;;;;;;5134949;27;20497;-72
2023/08/02 02:42:31;;;;;;;3.58;1.85;;;;;;;;;;5134181;27;20032;-70
2023/08/02 02:44:57;;;;;;;4.57;2.08;;;;;;;;;;5134643;27;20023;-71
2023/08/02 02:47:23;;;;;;;4.03;1.67;;;;;;;;;;5134557;27;20507;-71
2023/08/02 02:49:49;;;;;;;5.40;2.08;;;;;;;;;;5133813;27;20069;-72
2023/08/02 02:52:15;;;;;;;4.97;1.98;;;;;;;;;;5134473;27;20054;-71
2023/08/02 02:54:41;;;;;;;2.28;1.70;;;;;;;;;;5133540;27;20471;-71
2023/08/02 02:57:07;;;;;;;3.85;2.40;;;;;;;;;;5134466;27;20026;-71
2023/08/02 02:59:33;;;;;;;2.75;1.85;;;;;;;;;;5133281;27;20383;-70
2023/08/02 03:01:59;;;;;;;3.90;1.83;;;;;;;;;;5134274;27;20153;-71
2023/08/02 03:04:26;;;;;;;3.92;1.70;;;;;;;;;;5134239;27;20042;-71
2023/08/02 03:06:52;;;;;;;5.28;1.80;;;;;;;;;;5133915;27;20455;-70
2023/08/02 03:09:18;;;;;;;4.70;1.65;;;;;;;;;;5134430;27;20050;-71
2023/08/02 03:11:45;;;;;;;4.25;1.85;;;;;;;;;;5133217;27;20030;-70
2023/08/02 03:14:11;;;;;;;2.58;1.58;;;;;;;;;;5134111;27;20011;-71
2023/08/02 03:16:37;;;;;;;2.80;1.70;;;;;;;;;;5133119;27;20494;-70
2023/08/02 03:19:03;;;;;;;3.22;1.75;;;;;;;;;;5133668;27;20031;-71
2023/08/02 03:21:29;;;;;;;4.18;1.52;;;;;;;;;;5133563;27;20070;-70
2023/08/02 03:23:55;;;;;;;4.80;1.60;;;;;;;;;;5132924;27;20074;-72
2023/08/02 03:26:21;;;;;;;6.80;1.67;;;;;;;;;;5132152;27;20027;-71
2023/08/02 03:28:47;;;;;;;2.72;1.45;;;;;;;;;;5112508;28;20215;-70
2023/08/02 03:31:13;;;;;;;4.75;1.83;;;;;;;;;;5113095;28;20050;-71
2023/08/02 03:33:39;;;;;;;2.03;1.60;;;;;;;;;;5112424;28;20024;-70
2023/08/02 03:36:05;;;;;;;5.22;1.77;;;;;;;;;;5113271;28;20028;-71
2023/08/02 03:38:31;;;;;;;3.25;1.60;;;;;;;;;;5111392;28;20468;-70
2023/08/02 03:40:57;;;;;;;6.35;1.80;;;;;;;;;;5113021;28;20024;-71
2023/08/02 03:43:23;;;;;;;4.13;2.13;;;;;;;;;;5112957;28;20027;-71
2023/08/02 03:45:49;;;;;;;7.13;2.25;;;;;;;;;;5112284;28;20028;-71
2023/08/02 03:48:16;;;;;;;4.93;1.90;;;;;;;;;;5113001;28;20047;-71
2023/08/02 03:50:42;;;;;;;7.38;1.98;;;;;;;;;;5112486;28;20034;-70
2023/08/02 03:53:08;;;;;;;7.65;2.40;;;;;;;;;;5113718;28;20039;-71
2023/08/02 03:55:34;;;;;;;8.48;2.05;;;;;;;;;;5112097;28;20452;-70
2023/08/02 03:58:00;;;;;;;6.20;2.00;;;;;;;;;;5112899;28;20015;-70
2023/08/02 04:00:26;;;;;;;2.63;1.60;;;;;;;;;;5112706;28;20464;-71
2023/08/02 04:02:52;;;;;;;2.22;1.58;;;;;;;;;;5111990;28;20119;-71
2023/08/02 04:05:18;;;;;;;3.10;1.65;;;;;;;;;;5112976;28;20539;-71
2023/08/02 04:07:44;;;;;;;6.68;2.00;;;;;;;;;;5111965;28;20061;-71
2023/08/02 04:10:10;;;;;;;3.88;1.92;;;;;;;;;;5112656;28;20024;-71
2023/08/02 04:12:36;;;;;;;3.58;1.60;;;;;;;;;;5111879;28;20031;-71
2023/08/02 04:15:03;;;;;;;2.50;1.60;;;;;;;;;;5113046;28;20024;-72
2023/08/02 04:17:29;;;;;;;6.22;2.08;;;;;;;;;;5113005;28;20088;-71
2023/08/02 04:19:55;;;;;;;5.28;2.00;;;;;;;;;;5112093;28;20464;-70
2023/08/02 04:22:21;;;;;;;3.75;1.92;;;;;;;;;;5122482;28;20034;-70
2023/08/02 04:24:48;;;;;;;5.07;2.58;;;;;;;;;;5121048;28;20097;-71
2023/08/02 04:27:14;;;;;;;3.55;1.80;;;;;;;;;;5133580;28;20026;-71
2023/08/02 04:29:40;;;;;;;4.13;1.70;;;;;;;;;;5144297;28;20031;-70
2023/08/02 04:32:06;;;;;;;6.18;2.42;;;;;;;;;;5144331;28;20015;-71
2023/08/02 04:34:32;;;;;;;4.22;2.28;;;;;;;;;;5144724;28;20360;-70
2023/08/02 04:36:58;;;;;;;4.32;1.70;;;;;;;;;;5143030;28;20030;-70
2023/08/02 04:39:24;;;;;;;4.95;1.90;;;;;;;;;;5142813;28;20023;-71
2023/08/02 04:41:56;;;;;;;3.38;1.73;;;;;;;;;;5139715;28;20023;-71
2023/08/02 04:44:22;;;;;;;5.90;1.83;;;;;;;;;;5134201;28;20023;-70
2023/08/02 04:46:48;;;;;;;3.83;2.10;;;;;;;;;;5134613;28;20378;-70
2023/08/02 04:49:14;;;;;;;3.25;2.10;;;;;;;;;;5135149;27;20069;-71
2023/08/02 04:51:40;;;;;;;3.63;2.05;;;;;;;;;;5136668;27;20391;-69
2023/08/02 04:54:06;;;;;;;3.75;2.53;;;;;;;;;;5137316;27;20027;-71
2023/08/02 04:56:32;;;;;;;4.88;2.53;;;;;;;;;;5136762;27;20503;-71
2023/08/02 04:58:58;;;;;;;4.68;2.55;;;;;;;;;;5136041;27;20046;-70
2023/08/02 05:01:24;;;;;;;3.35;2.15;;;;;;;;;;5136881;27;20015;-70
2023/08/02 05:03:50;;;;;;;3.30;2.45;;;;;;;;;;5136151;27;20027;-71
2023/08/02 05:06:16;;;;;;;3.95;2.42;;;;;;;;;;5118966;27;20023;-70
2023/08/02 05:08:42;;;;;;;3.83;2.30;;;;;;;;;;5136216;27;20024;-70
2023/08/02 05:11:08;;;;;;;5.35;2.70;;;;;;;;;;5137312;27;20025;-70
2023/08/02 05:13:34;;;;;;;4.45;2.75;;;;;;;;;;5136888;27;20080;-70
2023/08/02 05:16:00;;;;;;;3.45;2.47;;;;;;;;;;5136134;27;20345;-71
2023/08/02 05:18:26;;;;;;;6.30;3.03;;;;;;;;;;5136824;27;20023;-70
2023/08/02 05:20:53;;;;;;;3.83;2.60;;;;;;;;;;5136086;27;20020;-71
2023/08/02 05:23:19;;;;;;;5.78;3.28;;;;;;;;;;5135770;27;20210;-70
2023/08/02 05:25:45;;;;;;;5.97;3.00;;;;;;;;;;5135560;27;20023;-69
2023/08/02 05:28:11;;;;;;;5.85;3.30;;;;;;;;;;5118925;27;20081;-71
2023/08/02 05:30:38;;;;;;;8.43;3.05;;;;;;;;;;5115125;28;20036;-70
2023/08/02 05:33:06;;;;;;;5.38;3.28;;;;;;;;;;5115888;28;20023;-70
2023/08/02 05:35:33;;;;;;;5.57;3.65;;;;;;;;;;5115459;28;20028;-70
2023/08/02 05:37:59;;;;;;;7.68;3.60;;;;;;;;;;5114851;28;20503;-70
2023/08/02 05:40:25;;;;;;;6.80;3.33;;;;;;;;;;5115184;28;20032;-70
2023/08/02 05:42:50;;;;;;;6.68;3.00;;;;;;;;;;5114566;28;20020;-70
2023/08/02 05:45:17;;;;;;;8.52;3.22;;;;;;;;;;5115292;28;20097;-70
2023/08/02 05:47:42;;;;;;;5.75;3.28;;;;;;;;;;5114591;28;20062;-70
2023/08/02 05:50:09;;;;;;;7.50;3.03;;;;;;;;;;5115243;28;20027;-70
2023/08/02 05:52:35;;;;;;;10.35;3.83;;;;;;;;;;5115204;28;20361;-70
2023/08/02 05:55:01;;;;;;;5.78;3.30;;;;;;;;;;5114460;28;20035;-71
2023/08/02 05:57:26;;;;;;;5.88;3.55;;;;;;;;;;5115217;28;20441;-71
2023/08/02 05:59:52;;;;;;;7.93;3.78;;;;;;;;;;5114166;28;20038;-70
2023/08/02 06:02:18;;;;;;;7.55;3.63;;;;;;;;;;5113990;28;20227;-70
2023/08/02 06:04:45;;;;;;;6.15;3.47;;;;;;;;;;5114254;28;20134;-70
2023/08/02 06:07:11;;;;;;;9.10;4.03;;;;;;;;;;5114742;28;20030;-70
2023/08/02 06:09:37;;;;;;;8.18;3.58;;;;;;;;;;5114286;28;20026;-70
2023/08/02 06:12:03;;;;;;;8.00;3.92;;;;;;;;;;5114303;28;20044;-70
2023/08/02 06:14:29;;;;;;;6.03;3.72;;;;;;;;;;5114475;28;20143;-70
2023/08/02 06:16:55;;;;;;;6.50;4.22;;;;;;;;;;5113825;28;20601;-70
2023/08/02 06:19:21;;;;;;;8.80;4.80;;;;;;;;;;5113705;28;20058;-70
2023/08/02 06:21:47;;;;;;;6.75;3.92;;;;;;;;;;5113595;28;20019;-70
2023/08/02 06:24:13;;;;;;;7.28;4.18;;;;;;;;;;5113790;28;20053;-70
2023/08/02 06:26:39;;;;;;;8.98;4.68;;;;;;;;;;5118190;27;20536;-70
2023/08/02 06:29:09;;;;;;;9.02;4.55;;;;;;;;;;5134596;27;20069;-70
2023/08/02 06:31:35;;;;;;;9.23;4.13;;;;;;;;;;5134298;27;20087;-70
2023/08/02 06:34:01;;;;;;;7.43;5.50;;;;;;;;;;5134072;27;20091;-70
2023/08/02 06:36:27;;;;;;;7.65;5.10;;;;;;;;;;5134791;27;20027;-70
2023/08/02 06:38:53;;;;;;;9.15;4.75;;;;;;;;;;5133922;27;20032;-70
2023/08/02 06:41:19;;;;;;;9.45;5.45;;;;;;;;;;5134891;27;20027;-70
2023/08/02 06:43:45;;;;;;;9.77;5.47;;;;;;;;;;5133809;27;20019;-71
2023/08/02 06:46:11;;;;;;;9.15;5.80;;;;;;;;;;5134376;27;20111;-70
2023/08/02 06:48:37;;;;;;;8.90;5.85;;;;;;;;;;5134521;27;20171;-70
2023/08/02 06:51:03;;;;;;;9.80;5.50;;;;;;;;;;5133725;27;20026;-70
2023/08/02 06:53:29;;;;;;;7.68;5.72;;;;;;;;;;5134685;27;20388;-70
2023/08/02 06:55:55;;;;;;;9.93;6.05;;;;;;;;;;5133466;27;20019;-70
2023/08/02 06:58:21;;;;;;;7.53;5.80;;;;;;;;;;5134371;27;20474;-70
2023/08/02 07:00:47;;;;;;;8.27;5.47;;;;;;;;;;5133194;27;20039;-70
2023/08/02 07:03:13;;;;;;;10.40;6.03;;;;;;;;;;5133892;27;20392;-71
2023/08/02 07:05:39;;;;;;;9.85;6.45;;;;;;;;;;5134300;27;20019;-70
2023/08/02 07:08:05;;;;;;;6.60;5.18;;;;;;;;;;5133379;27;20029;-71
2023/08/02 07:10:31;;;;;;;9.63;5.93;;;;;;;;;;5134234;27;20425;-70
2023/08/02 07:12:57;;;;;;;6.95;5.03;;;;;;;;;;5132933;27;20027;-70
2023/08/02 07:15:23;;;;;;;7.80;5.65;;;;;;;;;;5134182;27;20032;-70
2023/08/02 07:17:49;;;;;;;8.52;6.45;;;;;;;;;;5133244;27;20019;-70
2023/08/02 07:20:18;;;;;;;8.20;6.88;;;;;;;;;;5115392;27;20027;-70
2023/08/02 07:22:44;;;;;;;9.85;6.50;;;;;;;;;;5133305;27;20490;-70
2023/08/02 07:25:10;;;;;;;10.80;6.68;;;;;;;;;;5133048;27;20399;-70
2023/08/02 07:27:37;;;;;;;9.20;6.25;;;;;;;;;;5121408;27;20147;-70
2023/08/02 07:30:03;;;;;;;9.73;6.05;;;;;;;;;;5112641;28;20639;-70
2023/08/02 07:32:31;;;;;;;9.07;6.45;;;;;;;;;;5113234;28;20489;-70
2023/08/02 07:34:57;;;;;;;8.65;5.80;;;;;;;;;;5112324;28;20032;-71
2023/08/02 07:37:23;;;;;;;9.50;6.45;;;;;;;;;;5113115;28;20020;-70
2023/08/02 07:39:49;;;;;;;7.75;5.88;;;;;;;;;;5112179;28;20513;-70
2023/08/02 07:42:15;;;;;;;8.52;6.15;;;;;;;;;;5114303;28;20150;-71
2023/08/02 07:44:41;;;;;;;7.43;5.85;;;;;;;;;;5113099;28;20023;-71
2023/08/02 07:47:08;;;;;;;9.40;5.72;;;;;;;;;;5112135;28;20028;-70
2023/08/02 07:49:34;;;;;;;9.23;6.10;;;;;;;;;;5112751;28;20027;-70
2023/08/02 07:52:00;;;;;;;9.38;6.28;;;;;;;;;;5112169;28;20103;-70
2023/08/02 07:54:26;;;;;;;8.18;5.85;;;;;;;;;;5112865;28;20460;-70
2023/08/02 07:56:52;;;;;;;10.93;6.43;;;;;;;;;;5112017;28;20031;-70
2023/08/02 07:59:18;;;;;;;7.32;5.43;;;;;;;;;;5094466;28;20032;-70
2023/08/02 08:01:44;;;;;;;9.40;6.43;;;;;;;;;;5112590;28;20098;-70
2023/08/02 08:04:10;;;;;;;10.25;6.22;;;;;;;;;;5112202;28;20023;-71
2023/08/02 08:06:36;;;;;;;9.25;5.80;;;;;;;;;;5112454;28;20043;-70
2023/08/02 08:09:02;;;;;;;9.85;5.93;;;;;;;;;;5111858;28;20080;-70
2023/08/02 08:11:29;;;;;;;7.88;5.53;;;;;;;;;;5112546;28;20024;-70
2023/08/02 08:13:55;;;;;;;7.85;5.60;;;;;;;;;;5111824;28;20039;-70
2023/08/02 08:16:21;;;;;;;7.32;5.18;;;;;;;;;;5112444;28;20391;-70
2023/08/02 08:18:47;;;;;;;8.68;5.10;;;;;;;;;;5112021;28;20028;-70
2023/08/02 08:21:13;;;;;;;6.03;5.03;;;;;;;;;;5112207;28;20471;-70
2023/08/02 08:23:39;;;;;;;9.00;5.18;;;;;;;;;;5111710;28;20055;-71
2023/08/02 08:26:12;;;;;;;7.95;4.95;;;;;;;;;;5114387;28;20126;-72
2023/08/02 08:28:39;;;;;;;7.28;5.00;;;;;;;;;;5096201;28;20024;-71
2023/08/02 08:31:05;;;;;;;6.57;4.65;;;;;;;;;;5095430;28;20027;-70
2023/08/02 08:33:31;;;;;;;5.97;4.10;;;;;;;;;;5096102;28;20024;-71
2023/08/02 08:35:57;;;;;;;8.13;3.85;;;;;;;;;;5095227;28;20032;-70
2023/08/02 08:38:24;;;;;;;4.18;3.40;;;;;;;;;;5096101;28;20020;-70
2023/08/02 08:40:53;;;;;;;5.53;3.15;;;;;;;;;;5095410;28;20414;-70
2023/08/02 08:43:20;;;;;;;4.75;3.10;;;;;;;;;;5096353;28;20047;-71
2023/08/02 08:45:46;;;;;;;5.00;3.42;;;;;;;;;;5095811;28;20095;-70
2023/08/02 08:48:12;;;;;;;6.95;3.30;;;;;;;;;;5095415;28;20028;-70
2023/08/02 08:50:40;;;;;;;4.13;3.47;;;;;;;;;;5095799;28;20039;-70
2023/08/02 08:53:10;;;;;;;4.05;3.47;;;;;;;;;;5095325;28;20021;-71
2023/08/02 08:55:37;;;;;;;3.20;2.85;;;;;;;;;;5095600;28;20108;-71
2023/08/02 08:58:03;;;;;;;4.38;2.88;;;;;;;;;;5095193;28;20051;-71
2023/08/02 09:00:31;;;;;;;3.63;2.53;;;;;;;;;;5095530;28;20060;-69
2023/08/02 09:02:58;;;;;;;5.32;3.05;;;;;;;;;;5094929;28;20024;-71
2023/08/02 09:05:25;;;;;;;5.18;2.63;;;;;;;;;;5095633;28;20020;-70
2023/08/02 09:07:57;;;;;;;4.05;2.65;;;;;;;;;;5096085;28;20035;-69
2023/08/02 09:10:23;;;;;;;5.05;3.13;;;;;;;;;;5106579;28;20020;-70
2023/08/02 09:12:49;;;;;;;3.30;2.80;;;;;;;;;;5095267;28;20024;-69
2023/08/02 09:15:15;;;;;;;4.18;2.88;;;;;;;;;;5094851;28;20035;-70
2023/08/02 09:17:49;;;;;;;3.83;2.97;;;;;;;;;;5100844;28;20062;-69
2023/08/02 09:20:15;;;;;;;3.47;2.97;;;;;;;;;;5097380;28;20365;-70
2023/08/02 09:22:41;;;;;;;5.72;3.20;;;;;;;;;;5097515;28;20462;-70
2023/08/02 09:25:10;;;;;;;4.85;3.25;;;;;;;;;;5083218;28;20059;-71
2023/08/02 09:27:36;;;;;;;5.55;3.42;;;;;;;;;;5110263;28;20039;-70
2023/08/02 09:30:02;;;;;;;4.47;3.55;;;;;;;;;;5127546;28;20452;-69
2023/08/02 09:32:28;;;;;;;3.97;3.30;;;;;;;;;;5116728;28;20064;-70
2023/08/02 09:34:58;;;;;;;5.38;3.42;;;;;;;;;;5114596;28;20020;-70
2023/08/02 09:37:31;;;;;;;6.20;3.10;;;;;;;;;;5115194;28;20328;-72
2023/08/02 09:40:04;;;;;;;4.65;3.60;;;;;;;;;;5114644;28;20092;-70
2023/08/02 09:42:34;;;;;;;4.05;3.55;;;;;;;;;;5115278;28;20051;-70
2023/08/02 09:45:04;;;;;;;5.30;3.20;;;;;;;;;;5114533;28;20019;-69
2023/08/02 09:47:33;;;;;;;7.55;3.15;;;;;;;;;;5115011;28;20043;-70
2023/08/02 09:50:06;;;;;;;4.80;3.45;;;;;;;;;;5114252;28;20023;-69
2023/08/02 09:52:35;;;;;;;5.82;3.83;;;;;;;;;;5114999;28;20050;-70
2023/08/02 09:55:05;;;;;;;7.63;3.43;;;;;;;;;;5114058;28;20077;-70
2023/08/02 09:57:35;;;;;;;4.83;3.47;;;;;;;;;;5115050;28;20042;-70
2023/08/02 10:00:04;;;;;;;;;;;;;;;;;;5114480;28;20024;-69
2023/08/02 10:02:34;;;;;;;6.97;3.40;;;;;;;;;;5114755;28;19907;-70
2023/08/02 10:05:03;;;;;;;5.97;3.27;;;;;;;;;;5114279;28;20464;-70
2023/08/02 10:07:43;;;;;;;4.22;3.33;;;;;;;;;;5114709;28;20337;-70
2023/08/02 10:10:17;;;;;;;6.25;3.90;;;;;;;;;;5113795;28;20481;-70
2023/08/02 10:12:47;;;;;;;3.92;3.53;;;;;;;;;;5114903;28;20024;-70
2023/08/02 10:15:14;;;;;;;6.18;3.65;;;;;;;;;;5113655;28;20019;-70
2023/08/02 10:17:41;;;;;;;6.63;4.28;;;;;;;;;;5114269;28;20430;-70
2023/08/02 10:20:10;;;;;;;5.25;3.50;;;;;;;;;;5113742;28;20030;-69
2023/08/02 10:22:36;;;;;;;8.30;3.45;;;;;;;;;;5114097;28;20111;-70
2023/08/02 10:25:03;;;;;;;5.20;3.72;;;;;;;;;;5131051;27;20130;-70
2023/08/02 10:27:29;;;;;;;4.43;3.60;;;;;;;;;;5127603;27;20027;-70
2023/08/02 10:29:55;;;;;;;5.78;4.13;;;;;;;;;;5134055;27;20031;-70
2023/08/02 10:32:21;;;;;;;6.28;4.53;;;;;;;;;;5134671;27;20019;-70
2023/08/02 10:34:49;;;;;;;7.75;4.43;;;;;;;;;;5134807;27;20027;-70
2023/08/02 10:37:15;;;;;;;4.93;4.13;;;;;;;;;;5133900;27;20284;-69
2023/08/02 10:39:48;;;;;;;7.00;4.10;;;;;;;;;;5134616;27;20458;-71
2023/08/02 10:42:14;;;;;;;6.50;4.65;;;;;;;;;;5133681;27;20100;-69
2023/08/02 10:44:55;;;;;;;6.20;4.35;;;;;;;;;;5134655;27;20474;-70
2023/08/02 10:47:28;;;;;;;5.10;4.05;;;;;;;;;;5133488;27;20030;-69
2023/08/02 10:49:55;;;;;;;6.80;4.20;;;;;;;;;;5134301;27;20031;-69
2023/08/02 10:52:24;;;;;;;6.38;4.72;;;;;;;;;;5133748;27;20030;-70
2023/08/02 10:55:10;;;;;;;5.82;4.68;;;;;;;;;;5134392;27;20069;-70
2023/08/02 10:57:37;;;;;;;4.93;3.90;;;;;;;;;;5134226;27;20055;-70
2023/08/02 11:00:14;;;;;;;4.75;4.22;;;;;;;;;;5133448;27;20027;-70
2023/08/02 11:02:47;;;;;;;6.68;4.63;;;;;;;;;;5134148;27;20023;-70
2023/08/02 11:05:14;;;;;;;7.93;4.57;;;;;;;;;;5133481;27;20019;-70
2023/08/02 11:07:41;;;;;;;5.10;3.67;;;;;;;;;;5134348;27;20019;-70
2023/08/02 11:10:07;;;;;;;7.65;4.68;;;;;;;;;;5114941;27;20022;-70
2023/08/02 11:12:34;;;;;;;7.45;4.22;;;;;;;;;;5115560;27;20028;-70
2023/08/02 11:15:01;;;;;;;6.20;4.60;;;;;;;;;;5133245;27;20015;-70
2023/08/02 11:17:32;;;;;;;8.50;5.35;;;;;;;;;;5134230;27;20027;-70
2023/08/02 11:20:05;;;;;;;5.95;4.15;;;;;;;;;;5133135;27;20467;-70
2023/08/02 11:22:42;;;;;;;7.80;4.63;;;;;;;;;;5133797;27;20054;-70
2023/08/02 11:25:13;;;;;;;6.00;4.40;;;;;;;;;;5132506;27;20047;-70
2023/08/02 11:27:42;;;;;;;5.60;3.97;;;;;;;;;;5120961;27;20028;-70
2023/08/02 11:30:11;;;;;;;6.78;4.85;;;;;;;;;;5112677;28;20028;-69
2023/08/02 11:32:45;;;;;;;6.18;4.93;;;;;;;;;;5113160;28;20099;-71
2023/08/02 11:35:18;;;;;;;6.65;4.60;;;20.10;99.90;;;;;;5112055;28;20034;-70
2023/08/02 11:37:44;;;;;;;6.35;4.07;;;20.50;99.90;;;;;;5112963;28;20031;-70
2023/08/02 11:40:11;;;;;;;9.13;4.47;;;20.70;99.90;;;;;;5112105;28;20026;-69
2023/08/02 11:42:50;;;;;;;6.60;4.38;;;;;;;;;;5112911;28;20023;-70
2023/08/02 11:45:28;;;;;;;4.28;3.63;;;21.10;99.90;;;;;;5111873;28;20024;-71
2023/08/02 11:47:54;;;;;;;8.10;4.15;;;21.50;99.90;;;;;;5094810;28;20463;-71
2023/08/02 11:50:26;;;;;;;5.75;4.50;;;;;;;;;;5111911;28;20102;-69
2023/08/02 11:52:53;;;;;;;5.80;4.00;;;;;;;;;;5112908;28;20147;-70
2023/08/02 11:55:21;;;;;;;7.35;3.80;;;23.00;99.90;;;;;;5111905;28;20043;-71
2023/08/02 11:57:47;;;;;;;7.93;4.05;;;23.40;99.90;;;;;;5112201;28;20045;-71
2023/08/02 12:00:13;;;;;;;6.03;3.95;;;24.00;99.90;;;;;;5110827;28;20035;-71
2023/08/02 12:02:39;;;;;;;4.97;3.70;;;24.30;99.90;;;;;;5112416;28;20182;-71
2023/08/02 12:05:07;;;;;;;5.18;3.53;;;24.50;99.90;;;;;;5111823;28;20447;-71
2023/08/02 12:07:34;;;;;;;6.13;3.63;;;24.60;99.90;;;;;;5112795;28;20111;-71
2023/08/02 12:10:06;;;;;;;6.13;3.72;;;24.50;99.90;;;;;;5112122;28;20027;-71
2023/08/02 12:12:34;;;;;;;4.72;3.85;;;24.40;99.90;;;;;;5112713;28;20024;-72
2023/08/02 12:15:10;;;;;;;6.50;4.00;;;24.30;99.90;;;;;;5112694;28;20063;-71
2023/08/02 12:17:35;;;;;;;7.47;3.50;;;24.40;99.90;;;;;;5112607;28;20041;-71
2023/08/02 12:20:01;;;;;;;5.80;4.00;;;24.50;99.90;;;;;;5111118;28;20020;-71
2023/08/02 12:22:27;;;;;;;5.93;3.58;;;24.60;99.90;;;;;;5112128;28;20488;-72
2023/08/02 12:25:07;;;;;;;5.13;3.80;;;;;;;;;;5111581;28;20048;-71
2023/08/02 12:27:33;;;;;;;6.63;3.55;;;25.20;99.90;;;;;;5124393;28;20027;-71
2023/08/02 12:30:15;;;;;;;3.88;3.15;;;25.70;99.90;;;;;;5132735;28;20092;-72
2023/08/02 12:32:41;;;;;;;8.05;2.95;;;;;;;;;;5132914;28;20070;-71
2023/08/02 12:35:08;;;;;;;4.72;3.38;;;;;;;;;;5132076;28;20030;-71
2023/08/02 12:37:35;;;;;;;5.50;3.00;;;27.60;99.90;;;;;;5132968;28;20023;-72
2023/08/02 12:40:01;;;;;;;4.70;2.72;;;27.60;99.90;;;;;;5132646;28;20035;-71
2023/08/02 12:42:27;;;;;;;4.60;2.80;;;28.10;99.90;;;;;;5132301;28;20028;-71
2023/08/02 12:44:52;;;;;;;4.15;2.90;;;28.30;99.90;;;;;;5132777;28;20068;-72
2023/08/02 12:47:18;;;;;;;3.55;2.92;;;28.20;99.90;;;;;;5131995;28;20031;-71
2023/08/02 12:49:43;;;;;;;6.18;3.45;;;27.70;99.90;;;;;;5132321;28;20023;-71
2023/08/02 12:52:09;;;;;;;3.72;2.95;;;27.30;99.90;;;;;;5132078;28;20031;-71
2023/08/02 12:54:34;;;;;;;4.75;2.70;;;27.00;99.90;;;;;;5132332;28;20455;-71
2023/08/02 12:57:00;;;;;;;4.38;3.13;;;26.70;99.90;;;;;;5132596;28;20027;-71
2023/08/02 12:59:26;;;;;;;3.80;3.20;;;26.40;99.90;;;;;;5131832;28;20038;-71
2023/08/02 13:01:51;;;;;;;3.53;2.72;;;26.30;99.90;;;;;;5132580;28;20035;-71
2023/08/02 13:04:17;;;;;;;5.55;3.10;;;26.20;99.90;;;;;;5131831;28;20028;-71
2023/08/02 13:06:42;;;;;;;4.15;2.72;;;26.10;99.90;;;;;;5132956;28;20106;-72
2023/08/02 13:09:08;;;;;;;3.90;2.50;;;26.10;99.90;;;;;;5132007;28;20015;-71
2023/08/02 13:11:34;;;;;;;3.63;2.80;;;26.00;99.90;;;;;;5134384;27;20108;-71
2023/08/02 13:13:59;;;;;;;5.40;2.47;;;25.90;99.90;;;;;;5136343;27;20027;-72
2023/08/02 13:16:25;;;;;;;4.35;3.15;;;25.80;99.90;;;;;;5135340;27;20640;-71
2023/08/02 13:18:50;;;;;;;6.32;3.10;;;25.80;99.90;;;;;;5136216;27;20491;-71
2023/08/02 13:21:16;;;;;;;3.95;2.85;;;25.80;99.90;;;;;;5135279;27;20034;-71
2023/08/02 13:23:42;;;;;;;4.35;2.70;;;25.70;99.90;;;;;;5135657;27;20051;-72
2023/08/02 13:26:07;;;;;;;2.40;2.20;;;25.60;99.90;;;;;;5135409;27;20030;-71
2023/08/02 13:28:33;;;;;;;3.00;2.63;;;25.60;99.90;;;;;;5115781;28;20051;-71
2023/08/02 13:30:58;;;;;;;7.20;3.40;;;25.40;99.90;;;;;;5115200;28;20070;-71
2023/08/02 13:33:27;;;;;;;3.75;2.75;;;25.20;99.90;;;;;;5114476;28;20046;-71
2023/08/02 13:35:53;;;;;;;3.28;2.70;;;25.10;99.90;;;;;;5115209;28;20058;-71
2023/08/02 13:38:19;;;;;;;4.43;2.80;;;25.00;99.90;;;;;;5114385;28;20051;-71
2023/08/02 13:40:45;;;;;;;5.57;3.15;;;25.00;99.90;;;;;;5115095;28;20079;-72
2023/08/02 13:43:10;;;;;;;3.70;2.60;;;24.90;99.90;;;;;;5114436;28;20031;-71
2023/08/02 13:45:36;;;;;;;5.05;2.85;;;24.50;99.90;;;;;;5115191;28;20376;-71
2023/08/02 13:48:03;;;;;;;5.13;2.90;;;24.20;99.90;;;;;;5115113;28;20027;-71
2023/08/02 13:50:31;;;;;;;3.63;2.47;;;23.90;99.90;;;;;;5114311;28;20031;-71
2023/08/02 13:52:57;;;;;;;3.75;2.33;;;23.90;99.90;;;;;;5115038;28;20115;-71
2023/08/02 13:55:23;;;;;;;4.32;2.13;;;23.90;99.90;;;;;;5113883;28;20515;-71
2023/08/02 13:57:48;;;;;;;3.70;1.90;;;24.30;99.90;;;;;;5114973;28;20039;-71
2023/08/02 14:00:14;;;;;;;4.57;2.13;;;24.60;99.90;;;;;;5114111;28;20034;-70
2023/08/02 14:02:39;;;;;;;3.25;2.25;;;25.20;99.90;;;;;;5114784;28;20239;-71
2023/08/02 14:05:05;;;;;;;2.50;2.08;;;25.70;99.90;;;;;;5114957;28;20031;-70
2023/08/02 14:07:31;;;;;;;3.70;1.90;;;26.30;99.90;;;;;;5114196;28;20023;-71
2023/08/02 14:09:56;;;;;;;2.20;1.83;;;27.10;99.90;;;;;;5114437;28;20549;-71
2023/08/02 14:12:22;;;;;;;1.85;1.73;;;27.60;99.90;;;;;;5114043;28;20039;-70
2023/08/02 14:14:47;;;;;;;2.45;1.83;;;27.70;99.90;;;;;;5114953;28;20024;-71
2023/08/02 14:17:13;;;;;;;2.22;1.80;;;27.50;99.90;;;;;;5113795;28;20479;-70
2023/08/02 14:19:39;;;;;;;5.78;2.05;;;27.30;99.90;;;;;;5114535;28;20077;-71